sensor_id;sensor_type;location;lat;lon;timestamp;P1;durP1;ratioP1;P2;durP2;ratioP2
12253;SDS011;6189;52.526;13.390;2022-11-20T00:03:07;14.07;;;12.20;;
12253;SDS011;6189;52.526;13.390;2022-11-20T00:06:02;14.90;;;12.47;;
12253;SDS011;6189;52.526;13.390;2022-11-20T00:08:57;16.40;;;11.83;;
12253;SDS011;6189;52.526;13.390;2022-11-20T00:11:57;15.20;;;12.40;;
12253;SDS011;6189;52.526;13.390;2022-11-20T00:15:24;19.50;;;15.40;;
12253;SDS011;6189;52.526;13.390;2022-11-20T00:18:17;18.60;;;14.57;;
12253;SDS011;6189;52.526;13.390;2022-11-20T00:21:21;16.80;;;13.17;;
12253;SDS011;6189;52.526;13.390;2022-11-20T00:24:16;14.93;;;12.57;;
12253;SDS011;6189;52.526;13.390;2022-11-20T00:27:14;15.37;;;12.63;;
12253;SDS011;6189;52.526;13.390;2022-11-20T00:30:05;16.47;;;13.10;;
12253;SDS011;6189;52.526;13.390;2022-11-20T00:33:08;17.60;;;12.97;;
12253;SDS011;6189;52.526;13.390;2022-11-20T00:36:11;14.07;;;12.00;;
12253;SDS011;6189;52.526;13.390;2022-11-20T00:39:09;14.57;;;12.37;;
12253;SDS011;6189;52.526;13.390;2022-11-20T00:41:57;16.13;;;11.77;;
12253;SDS011;6189;52.526;13.390;2022-11-20T00:44:45;15.23;;;12.07;;
12253;SDS011;6189;52.526;13.390;2022-11-20T00:47:39;14.37;;;11.97;;
12253;SDS011;6189;52.526;13.390;2022-11-20T00:50:27;14.30;;;11.70;;
12253;SDS011;6189;52.526;13.390;2022-11-20T00:53:24;16.10;;;11.80;;
12253;SDS011;6189;52.526;13.390;2022-11-20T00:56:16;16.70;;;11.57;;
12253;SDS011;6189;52.526;13.390;2022-11-20T00:59:06;16.90;;;12.40;;
12253;SDS011;6189;52.526;13.390;2022-11-20T01:02:05;13.53;;;11.27;;
12253;SDS011;6189;52.526;13.390;2022-11-20T01:05:01;13.30;;;11.10;;
12253;SDS011;6189;52.526;13.390;2022-11-20T01:07:57;13.63;;;11.47;;
12253;SDS011;6189;52.526;13.390;2022-11-20T01:10:46;15.07;;;11.93;;
12253;SDS011;6189;52.526;13.390;2022-11-20T01:14:01;14.53;;;11.60;;
12253;SDS011;6189;52.526;13.390;2022-11-20T01:16:56;16.17;;;11.43;;
12253;SDS011;6189;52.526;13.390;2022-11-20T01:19:49;14.90;;;11.83;;
12253;SDS011;6189;52.526;13.390;2022-11-20T01:22:47;14.00;;;11.07;;
12253;SDS011;6189;52.526;13.390;2022-11-20T01:25:57;16.00;;;12.50;;
12253;SDS011;6189;52.526;13.390;2022-11-20T01:29:01;13.20;;;11.37;;
12253;SDS011;6189;52.526;13.390;2022-11-20T01:32:02;16.87;;;11.87;;
12253;SDS011;6189;52.526;13.390;2022-11-20T01:35:17;16.50;;;12.53;;
12253;SDS011;6189;52.526;13.390;2022-11-20T01:38:20;14.20;;;10.53;;
12253;SDS011;6189;52.526;13.390;2022-11-20T01:41:21;19.10;;;12.00;;
12253;SDS011;6189;52.526;13.390;2022-11-20T01:47:39;16.63;;;13.27;;
12253;SDS011;6189;52.526;13.390;2022-11-20T01:50:39;16.60;;;12.20;;
12253;SDS011;6189;52.526;13.390;2022-11-20T01:53:57;16.13;;;12.87;;
12253;SDS011;6189;52.526;13.390;2022-11-20T01:57:12;15.90;;;12.17;;
12253;SDS011;6189;52.526;13.390;2022-11-20T02:00:22;14.23;;;11.87;;
12253;SDS011;6189;52.526;13.390;2022-11-20T02:03:15;16.53;;;12.57;;
12253;SDS011;6189;52.526;13.390;2022-11-20T02:06:07;14.63;;;12.37;;
12253;SDS011;6189;52.526;13.390;2022-11-20T02:09:17;14.70;;;12.37;;
12253;SDS011;6189;52.526;13.390;2022-11-20T02:12:08;14.27;;;11.97;;
12253;SDS011;6189;52.526;13.390;2022-11-20T02:15:18;16.07;;;12.80;;
12253;SDS011;6189;52.526;13.390;2022-11-20T02:18:05;15.37;;;12.73;;
12253;SDS011;6189;52.526;13.390;2022-11-20T02:20:58;15.17;;;12.90;;
12253;SDS011;6189;52.526;13.390;2022-11-20T02:23:57;15.73;;;13.33;;
12253;SDS011;6189;52.526;13.390;2022-11-20T02:26:49;18.17;;;12.93;;
12253;SDS011;6189;52.526;13.390;2022-11-20T02:29:42;17.50;;;14.37;;
12253;SDS011;6189;52.526;13.390;2022-11-20T02:32:41;15.10;;;12.73;;
12253;SDS011;6189;52.526;13.390;2022-11-20T02:38:41;15.53;;;13.53;;
12253;SDS011;6189;52.526;13.390;2022-11-20T02:41:40;17.13;;;12.90;;
12253;SDS011;6189;52.526;13.390;2022-11-20T02:44:28;17.07;;;13.07;;
12253;SDS011;6189;52.526;13.390;2022-11-20T02:47:19;16.73;;;13.40;;
12253;SDS011;6189;52.526;13.390;2022-11-20T02:50:07;18.60;;;13.43;;
12253;SDS011;6189;52.526;13.390;2022-11-20T02:52:55;15.83;;;12.67;;
12253;SDS011;6189;52.526;13.390;2022-11-20T02:55:50;17.13;;;13.47;;
12253;SDS011;6189;52.526;13.390;2022-11-20T02:58:38;17.47;;;13.93;;
12253;SDS011;6189;52.526;13.390;2022-11-20T03:01:28;15.80;;;12.70;;
12253;SDS011;6189;52.526;13.390;2022-11-20T03:04:14;18.20;;;14.50;;
12253;SDS011;6189;52.526;13.390;2022-11-20T03:07:08;14.93;;;12.77;;
12253;SDS011;6189;52.526;13.390;2022-11-20T03:10:01;15.57;;;13.13;;
12253;SDS011;6189;52.526;13.390;2022-11-20T03:12:52;17.30;;;13.33;;
12253;SDS011;6189;52.526;13.390;2022-11-20T03:15:47;18.47;;;14.00;;
12253;SDS011;6189;52.526;13.390;2022-11-20T03:18:35;16.77;;;13.80;;
12253;SDS011;6189;52.526;13.390;2022-11-20T03:21:32;16.53;;;13.27;;
12253;SDS011;6189;52.526;13.390;2022-11-20T03:24:19;17.07;;;13.23;;
12253;SDS011;6189;52.526;13.390;2022-11-20T03:27:18;17.93;;;13.37;;
12253;SDS011;6189;52.526;13.390;2022-11-20T03:30:12;17.97;;;14.17;;
12253;SDS011;6189;52.526;13.390;2022-11-20T03:33:13;23.83;;;18.50;;
12253;SDS011;6189;52.526;13.390;2022-11-20T03:36:05;17.60;;;14.43;;
12253;SDS011;6189;52.526;13.390;2022-11-20T03:38:55;16.70;;;14.77;;
12253;SDS011;6189;52.526;13.390;2022-11-20T03:41:43;18.60;;;15.23;;
12253;SDS011;6189;52.526;13.390;2022-11-20T03:44:29;17.60;;;14.00;;
12253;SDS011;6189;52.526;13.390;2022-11-20T03:47:14;18.87;;;14.37;;
12253;SDS011;6189;52.526;13.390;2022-11-20T03:50:01;18.10;;;14.57;;
12253;SDS011;6189;52.526;13.390;2022-11-20T03:52:46;18.43;;;14.13;;
12253;SDS011;6189;52.526;13.390;2022-11-20T03:55:32;20.07;;;14.63;;
12253;SDS011;6189;52.526;13.390;2022-11-20T03:58:17;18.37;;;14.13;;
12253;SDS011;6189;52.526;13.390;2022-11-20T04:01:06;19.23;;;13.93;;
12253;SDS011;6189;52.526;13.390;2022-11-20T04:03:52;22.10;;;15.33;;
12253;SDS011;6189;52.526;13.390;2022-11-20T04:06:40;16.40;;;14.13;;
12253;SDS011;6189;52.526;13.390;2022-11-20T04:09:26;17.97;;;14.30;;
12253;SDS011;6189;52.526;13.390;2022-11-20T04:12:11;16.57;;;13.87;;
12253;SDS011;6189;52.526;13.390;2022-11-20T04:14:57;17.00;;;13.53;;
12253;SDS011;6189;52.526;13.390;2022-11-20T04:17:42;17.33;;;13.67;;
12253;SDS011;6189;52.526;13.390;2022-11-20T04:20:28;17.73;;;14.67;;
12253;SDS011;6189;52.526;13.390;2022-11-20T04:23:14;17.90;;;13.60;;
12253;SDS011;6189;52.526;13.390;2022-11-20T04:26:00;17.60;;;14.57;;
12253;SDS011;6189;52.526;13.390;2022-11-20T04:28:47;17.37;;;14.70;;
12253;SDS011;6189;52.526;13.390;2022-11-20T04:31:33;19.50;;;14.97;;
12253;SDS011;6189;52.526;13.390;2022-11-20T04:34:19;19.10;;;14.87;;
12253;SDS011;6189;52.526;13.390;2022-11-20T04:37:05;16.93;;;14.70;;
12253;SDS011;6189;52.526;13.390;2022-11-20T04:39:52;18.77;;;15.13;;
12253;SDS011;6189;52.526;13.390;2022-11-20T04:42:37;18.97;;;15.23;;
12253;SDS011;6189;52.526;13.390;2022-11-20T04:45:23;16.60;;;13.43;;
12253;SDS011;6189;52.526;13.390;2022-11-20T04:48:08;19.13;;;13.80;;
12253;SDS011;6189;52.526;13.390;2022-11-20T04:50:54;19.10;;;14.57;;
12253;SDS011;6189;52.526;13.390;2022-11-20T04:53:40;20.30;;;14.30;;
12253;SDS011;6189;52.526;13.390;2022-11-20T04:56:27;18.00;;;13.90;;
12253;SDS011;6189;52.526;13.390;2022-11-20T04:59:13;17.87;;;14.63;;
12253;SDS011;6189;52.526;13.390;2022-11-20T05:01:58;15.50;;;13.23;;
12253;SDS011;6189;52.526;13.390;2022-11-20T05:04:44;19.00;;;14.40;;
12253;SDS011;6189;52.526;13.390;2022-11-20T05:07:29;20.83;;;15.70;;
12253;SDS011;6189;52.526;13.390;2022-11-20T05:10:15;19.03;;;15.27;;
12253;SDS011;6189;52.526;13.390;2022-11-20T05:13:02;16.30;;;13.63;;
12253;SDS011;6189;52.526;13.390;2022-11-20T05:15:47;16.87;;;13.60;;
12253;SDS011;6189;52.526;13.390;2022-11-20T05:18:33;18.23;;;14.53;;
12253;SDS011;6189;52.526;13.390;2022-11-20T05:21:20;18.13;;;14.17;;
12253;SDS011;6189;52.526;13.390;2022-11-20T05:24:06;15.50;;;13.80;;
12253;SDS011;6189;52.526;13.390;2022-11-20T05:26:51;16.50;;;13.37;;
12253;SDS011;6189;52.526;13.390;2022-11-20T05:29:38;17.13;;;13.73;;
12253;SDS011;6189;52.526;13.390;2022-11-20T05:32:24;18.60;;;14.03;;
12253;SDS011;6189;52.526;13.390;2022-11-20T05:35:09;18.97;;;14.80;;
12253;SDS011;6189;52.526;13.390;2022-11-20T05:37:54;19.47;;;15.43;;
12253;SDS011;6189;52.526;13.390;2022-11-20T05:40:40;23.10;;;14.90;;
12253;SDS011;6189;52.526;13.390;2022-11-20T05:43:25;17.97;;;14.83;;
12253;SDS011;6189;52.526;13.390;2022-11-20T05:46:13;18.33;;;14.27;;
12253;SDS011;6189;52.526;13.390;2022-11-20T05:49:00;19.47;;;15.60;;
12253;SDS011;6189;52.526;13.390;2022-11-20T05:51:45;18.83;;;15.43;;
12253;SDS011;6189;52.526;13.390;2022-11-20T05:54:31;18.10;;;14.83;;
12253;SDS011;6189;52.526;13.390;2022-11-20T05:57:16;15.60;;;13.43;;
12253;SDS011;6189;52.526;13.390;2022-11-20T06:00:02;16.90;;;13.27;;
12253;SDS011;6189;52.526;13.390;2022-11-20T06:02:50;20.23;;;14.67;;
12253;SDS011;6189;52.526;13.390;2022-11-20T06:05:36;18.53;;;14.23;;
12253;SDS011;6189;52.526;13.390;2022-11-20T06:08:21;18.50;;;14.13;;
12253;SDS011;6189;52.526;13.390;2022-11-20T06:11:07;16.77;;;13.67;;
12253;SDS011;6189;52.526;13.390;2022-11-20T06:13:54;17.60;;;14.23;;
12253;SDS011;6189;52.526;13.390;2022-11-20T06:16:39;20.07;;;15.07;;
12253;SDS011;6189;52.526;13.390;2022-11-20T06:19:26;17.27;;;14.00;;
12253;SDS011;6189;52.526;13.390;2022-11-20T06:22:12;19.33;;;15.10;;
12253;SDS011;6189;52.526;13.390;2022-11-20T06:24:58;17.70;;;13.97;;
12253;SDS011;6189;52.526;13.390;2022-11-20T06:27:43;19.20;;;14.70;;
12253;SDS011;6189;52.526;13.390;2022-11-20T06:30:29;22.10;;;13.87;;
12253;SDS011;6189;52.526;13.390;2022-11-20T06:33:14;17.93;;;14.67;;
12253;SDS011;6189;52.526;13.390;2022-11-20T06:36:01;19.67;;;16.03;;
12253;SDS011;6189;52.526;13.390;2022-11-20T06:38:48;17.90;;;14.57;;
12253;SDS011;6189;52.526;13.390;2022-11-20T06:41:34;19.70;;;15.07;;
12253;SDS011;6189;52.526;13.390;2022-11-20T06:44:19;18.07;;;14.30;;
12253;SDS011;6189;52.526;13.390;2022-11-20T06:47:04;18.03;;;15.10;;
12253;SDS011;6189;52.526;13.390;2022-11-20T06:49:50;18.47;;;14.80;;
12253;SDS011;6189;52.526;13.390;2022-11-20T06:52:37;20.43;;;15.47;;
12253;SDS011;6189;52.526;13.390;2022-11-20T06:55:22;18.40;;;15.23;;
12253;SDS011;6189;52.526;13.390;2022-11-20T06:58:08;20.23;;;15.30;;
12253;SDS011;6189;52.526;13.390;2022-11-20T07:00:54;17.80;;;13.93;;
12253;SDS011;6189;52.526;13.390;2022-11-20T07:03:43;19.30;;;15.10;;
12253;SDS011;6189;52.526;13.390;2022-11-20T07:06:28;18.50;;;14.53;;
12253;SDS011;6189;52.526;13.390;2022-11-20T07:09:15;20.97;;;15.37;;
12253;SDS011;6189;52.526;13.390;2022-11-20T07:12:01;19.63;;;14.77;;
12253;SDS011;6189;52.526;13.390;2022-11-20T07:14:46;18.90;;;15.07;;
12253;SDS011;6189;52.526;13.390;2022-11-20T07:17:32;20.47;;;14.83;;
12253;SDS011;6189;52.526;13.390;2022-11-20T07:20:17;20.70;;;16.03;;
12253;SDS011;6189;52.526;13.390;2022-11-20T07:23:03;20.33;;;15.17;;
12253;SDS011;6189;52.526;13.390;2022-11-20T07:25:49;20.70;;;15.13;;
12253;SDS011;6189;52.526;13.390;2022-11-20T07:28:35;19.20;;;15.80;;
12253;SDS011;6189;52.526;13.390;2022-11-20T07:31:22;20.73;;;16.70;;
12253;SDS011;6189;52.526;13.390;2022-11-20T07:34:07;20.50;;;15.37;;
12253;SDS011;6189;52.526;13.390;2022-11-20T07:36:52;18.43;;;15.53;;
12253;SDS011;6189;52.526;13.390;2022-11-20T07:39:38;19.17;;;15.17;;
12253;SDS011;6189;52.526;13.390;2022-11-20T07:42:24;19.83;;;15.73;;
12253;SDS011;6189;52.526;13.390;2022-11-20T07:45:10;20.03;;;15.67;;
12253;SDS011;6189;52.526;13.390;2022-11-20T07:47:56;20.13;;;16.03;;
12253;SDS011;6189;52.526;13.390;2022-11-20T07:50:41;21.20;;;16.23;;
12253;SDS011;6189;52.526;13.390;2022-11-20T07:53:27;19.70;;;15.00;;
12253;SDS011;6189;52.526;13.390;2022-11-20T07:56:12;20.30;;;16.07;;
12253;SDS011;6189;52.526;13.390;2022-11-20T07:58:59;19.40;;;15.23;;
12253;SDS011;6189;52.526;13.390;2022-11-20T08:01:45;20.33;;;16.17;;
12253;SDS011;6189;52.526;13.390;2022-11-20T08:04:31;17.70;;;15.30;;
12253;SDS011;6189;52.526;13.390;2022-11-20T08:07:17;23.50;;;15.97;;
12253;SDS011;6189;52.526;13.390;2022-11-20T08:10:02;19.13;;;14.97;;
12253;SDS011;6189;52.526;13.390;2022-11-20T08:12:49;20.63;;;16.93;;
12253;SDS011;6189;52.526;13.390;2022-11-20T08:15:56;18.90;;;14.77;;
12253;SDS011;6189;52.526;13.390;2022-11-20T08:18:41;22.53;;;16.23;;
12253;SDS011;6189;52.526;13.390;2022-11-20T08:21:26;18.60;;;15.50;;
12253;SDS011;6189;52.526;13.390;2022-11-20T08:24:12;23.10;;;16.53;;
12253;SDS011;6189;52.526;13.390;2022-11-20T08:27:00;21.67;;;15.93;;
12253;SDS011;6189;52.526;13.390;2022-11-20T08:29:45;22.53;;;15.90;;
12253;SDS011;6189;52.526;13.390;2022-11-20T08:32:32;19.97;;;15.83;;
12253;SDS011;6189;52.526;13.390;2022-11-20T08:35:21;21.00;;;16.27;;
12253;SDS011;6189;52.526;13.390;2022-11-20T08:38:07;23.03;;;16.50;;
12253;SDS011;6189;52.526;13.390;2022-11-20T08:40:55;18.53;;;13.93;;
12253;SDS011;6189;52.526;13.390;2022-11-20T08:44:00;19.53;;;15.23;;
12253;SDS011;6189;52.526;13.390;2022-11-20T08:46:47;21.40;;;17.03;;
12253;SDS011;6189;52.526;13.390;2022-11-20T08:49:43;20.83;;;16.17;;
12253;SDS011;6189;52.526;13.390;2022-11-20T08:52:31;23.10;;;17.03;;
12253;SDS011;6189;52.526;13.390;2022-11-20T08:55:17;21.97;;;16.27;;
12253;SDS011;6189;52.526;13.390;2022-11-20T08:58:03;22.07;;;16.27;;
12253;SDS011;6189;52.526;13.390;2022-11-20T09:00:48;23.93;;;16.17;;
12253;SDS011;6189;52.526;13.390;2022-11-20T09:03:34;26.50;;;17.13;;
12253;SDS011;6189;52.526;13.390;2022-11-20T09:06:21;23.67;;;16.70;;
12253;SDS011;6189;52.526;13.390;2022-11-20T09:09:07;19.70;;;15.27;;
12253;SDS011;6189;52.526;13.390;2022-11-20T09:11:52;18.83;;;15.53;;
12253;SDS011;6189;52.526;13.390;2022-11-20T09:14:38;19.30;;;15.13;;
12253;SDS011;6189;52.526;13.390;2022-11-20T09:17:23;19.47;;;15.57;;
12253;SDS011;6189;52.526;13.390;2022-11-20T09:20:09;19.90;;;16.27;;
12253;SDS011;6189;52.526;13.390;2022-11-20T09:22:56;22.57;;;17.03;;
12253;SDS011;6189;52.526;13.390;2022-11-20T09:25:43;20.83;;;15.73;;
12253;SDS011;6189;52.526;13.390;2022-11-20T09:28:29;20.13;;;15.30;;
12253;SDS011;6189;52.526;13.390;2022-11-20T09:31:17;19.77;;;16.20;;
12253;SDS011;6189;52.526;13.390;2022-11-20T09:34:07;19.53;;;15.50;;
12253;SDS011;6189;52.526;13.390;2022-11-20T09:36:53;24.50;;;15.83;;
12253;SDS011;6189;52.526;13.390;2022-11-20T09:39:40;17.47;;;15.33;;
12253;SDS011;6189;52.526;13.390;2022-11-20T09:42:29;21.07;;;16.70;;
12253;SDS011;6189;52.526;13.390;2022-11-20T09:45:24;19.60;;;14.57;;
12253;SDS011;6189;52.526;13.390;2022-11-20T09:48:26;17.77;;;15.20;;
12253;SDS011;6189;52.526;13.390;2022-11-20T09:51:29;24.13;;;15.13;;
12253;SDS011;6189;52.526;13.390;2022-11-20T09:54:22;20.07;;;16.23;;
12253;SDS011;6189;52.526;13.390;2022-11-20T09:57:13;18.60;;;15.63;;
12253;SDS011;6189;52.526;13.390;2022-11-20T10:00:09;21.80;;;15.57;;
12253;SDS011;6189;52.526;13.390;2022-11-20T10:02:58;24.30;;;17.70;;
12253;SDS011;6189;52.526;13.390;2022-11-20T10:05:48;23.23;;;16.03;;
12253;SDS011;6189;52.526;13.390;2022-11-20T10:08:39;21.30;;;16.33;;
12253;SDS011;6189;52.526;13.390;2022-11-20T10:11:32;20.23;;;15.47;;
12253;SDS011;6189;52.526;13.390;2022-11-20T10:14:31;21.20;;;16.60;;
12253;SDS011;6189;52.526;13.390;2022-11-20T10:17:30;20.97;;;16.23;;
12253;SDS011;6189;52.526;13.390;2022-11-20T10:20:28;21.07;;;16.87;;
12253;SDS011;6189;52.526;13.390;2022-11-20T10:23:24;22.57;;;16.20;;
12253;SDS011;6189;52.526;13.390;2022-11-20T10:26:21;18.63;;;14.93;;
12253;SDS011;6189;52.526;13.390;2022-11-20T10:29:14;19.47;;;16.23;;
12253;SDS011;6189;52.526;13.390;2022-11-20T10:32:03;22.20;;;16.27;;
12253;SDS011;6189;52.526;13.390;2022-11-20T10:34:57;18.80;;;15.33;;
12253;SDS011;6189;52.526;13.390;2022-11-20T10:37:47;18.03;;;15.30;;
12253;SDS011;6189;52.526;13.390;2022-11-20T10:40:37;18.67;;;15.07;;
12253;SDS011;6189;52.526;13.390;2022-11-20T10:43:28;20.70;;;14.90;;
12253;SDS011;6189;52.526;13.390;2022-11-20T10:46:18;20.87;;;14.50;;
12253;SDS011;6189;52.526;13.390;2022-11-20T10:49:12;18.80;;;15.33;;
12253;SDS011;6189;52.526;13.390;2022-11-20T10:52:00;17.07;;;15.13;;
12253;SDS011;6189;52.526;13.390;2022-11-20T10:54:56;18.33;;;14.63;;
12253;SDS011;6189;52.526;13.390;2022-11-20T10:57:52;20.97;;;15.10;;
12253;SDS011;6189;52.526;13.390;2022-11-20T11:00:43;17.40;;;14.33;;
12253;SDS011;6189;52.526;13.390;2022-11-20T11:03:30;21.50;;;16.43;;
12253;SDS011;6189;52.526;13.390;2022-11-20T11:06:19;18.20;;;15.10;;
12253;SDS011;6189;52.526;13.390;2022-11-20T11:09:10;16.60;;;14.77;;
12253;SDS011;6189;52.526;13.390;2022-11-20T11:11:59;19.07;;;15.13;;
12253;SDS011;6189;52.526;13.390;2022-11-20T11:14:46;17.53;;;14.43;;
12253;SDS011;6189;52.526;13.390;2022-11-20T11:17:33;16.57;;;13.47;;
12253;SDS011;6189;52.526;13.390;2022-11-20T11:20:19;18.40;;;15.33;;
12253;SDS011;6189;52.526;13.390;2022-11-20T11:23:22;17.90;;;15.20;;
12253;SDS011;6189;52.526;13.390;2022-11-20T11:26:18;18.97;;;14.60;;
12253;SDS011;6189;52.526;13.390;2022-11-20T11:29:15;23.40;;;15.43;;
12253;SDS011;6189;52.526;13.390;2022-11-20T11:32:04;19.80;;;15.37;;
12253;SDS011;6189;52.526;13.390;2022-11-20T11:35:00;16.97;;;15.00;;
12253;SDS011;6189;52.526;13.390;2022-11-20T11:37:46;18.20;;;14.57;;
12253;SDS011;6189;52.526;13.390;2022-11-20T11:40:36;15.43;;;13.43;;
12253;SDS011;6189;52.526;13.390;2022-11-20T11:43:25;16.87;;;12.93;;
12253;SDS011;6189;52.526;13.390;2022-11-20T11:46:31;17.27;;;12.83;;
12253;SDS011;6189;52.526;13.390;2022-11-20T11:49:19;16.33;;;12.97;;
12253;SDS011;6189;52.526;13.390;2022-11-20T11:52:08;19.93;;;14.17;;
12253;SDS011;6189;52.526;13.390;2022-11-20T11:54:59;15.20;;;13.33;;
12253;SDS011;6189;52.526;13.390;2022-11-20T11:57:51;15.33;;;13.40;;
12253;SDS011;6189;52.526;13.390;2022-11-20T12:00:47;15.60;;;13.53;;
12253;SDS011;6189;52.526;13.390;2022-11-20T12:03:38;19.40;;;13.70;;
12253;SDS011;6189;52.526;13.390;2022-11-20T12:06:25;17.40;;;13.00;;
12253;SDS011;6189;52.526;13.390;2022-11-20T12:09:13;16.00;;;13.07;;
12253;SDS011;6189;52.526;13.390;2022-11-20T12:12:02;15.70;;;13.03;;
12253;SDS011;6189;52.526;13.390;2022-11-20T12:14:54;16.97;;;12.50;;
12253;SDS011;6189;52.526;13.390;2022-11-20T12:17:42;19.47;;;13.20;;
12253;SDS011;6189;52.526;13.390;2022-11-20T12:20:29;18.73;;;12.70;;
12253;SDS011;6189;52.526;13.390;2022-11-20T12:23:21;15.60;;;12.13;;
12253;SDS011;6189;52.526;13.390;2022-11-20T12:26:27;14.57;;;11.80;;
12253;SDS011;6189;52.526;13.390;2022-11-20T12:29:29;58.43;;;29.73;;
12253;SDS011;6189;52.526;13.390;2022-11-20T12:32:34;18.73;;;13.27;;
12253;SDS011;6189;52.526;13.390;2022-11-20T12:35:44;16.87;;;12.83;;
12253;SDS011;6189;52.526;13.390;2022-11-20T12:39:05;45.00;;;26.60;;
12253;SDS011;6189;52.526;13.390;2022-11-20T12:42:05;38.23;;;24.53;;
12253;SDS011;6189;52.526;13.390;2022-11-20T12:45:31;27.13;;;19.83;;
12253;SDS011;6189;52.526;13.390;2022-11-20T12:48:41;31.67;;;25.90;;
12253;SDS011;6189;52.526;13.390;2022-11-20T12:51:34;50.27;;;34.73;;
12253;SDS011;6189;52.526;13.390;2022-11-20T12:54:46;36.13;;;27.70;;
12253;SDS011;6189;52.526;13.390;2022-11-20T12:57:46;22.63;;;17.47;;
12253;SDS011;6189;52.526;13.390;2022-11-20T13:00:36;36.33;;;27.80;;
12253;SDS011;6189;52.526;13.390;2022-11-20T13:03:39;27.87;;;19.13;;
12253;SDS011;6189;52.526;13.390;2022-11-20T13:06:31;17.07;;;13.87;;
12253;SDS011;6189;52.526;13.390;2022-11-20T13:09:18;13.70;;;10.80;;
12253;SDS011;6189;52.526;13.390;2022-11-20T13:12:08;12.07;;;9.70;;
12253;SDS011;6189;52.526;13.390;2022-11-20T13:14:58;13.50;;;9.47;;
12253;SDS011;6189;52.526;13.390;2022-11-20T13:17:56;11.73;;;9.17;;
12253;SDS011;6189;52.526;13.390;2022-11-20T13:20:46;12.40;;;10.07;;
12253;SDS011;6189;52.526;13.390;2022-11-20T13:23:33;11.53;;;9.33;;
12253;SDS011;6189;52.526;13.390;2022-11-20T13:26:19;11.60;;;9.43;;
12253;SDS011;6189;52.526;13.390;2022-11-20T13:29:08;11.83;;;9.50;;
12253;SDS011;6189;52.526;13.390;2022-11-20T13:32:03;11.50;;;9.73;;
12253;SDS011;6189;52.526;13.390;2022-11-20T13:34:59;10.93;;;8.97;;
12253;SDS011;6189;52.526;13.390;2022-11-20T13:37:46;11.60;;;9.97;;
12253;SDS011;6189;52.526;13.390;2022-11-20T13:40:32;13.13;;;9.73;;
12253;SDS011;6189;52.526;13.390;2022-11-20T13:43:21;11.33;;;9.17;;
12253;SDS011;6189;52.526;13.390;2022-11-20T13:46:11;14.47;;;9.60;;
12253;SDS011;6189;52.526;13.390;2022-11-20T13:48:57;12.13;;;10.13;;
12253;SDS011;6189;52.526;13.390;2022-11-20T13:51:44;12.13;;;9.33;;
12253;SDS011;6189;52.526;13.390;2022-11-20T13:54:43;11.90;;;9.20;;
12253;SDS011;6189;52.526;13.390;2022-11-20T13:57:42;10.37;;;8.73;;
12253;SDS011;6189;52.526;13.390;2022-11-20T14:00:48;14.00;;;9.90;;
12253;SDS011;6189;52.526;13.390;2022-11-20T14:03:39;15.13;;;8.43;;
12253;SDS011;6189;52.526;13.390;2022-11-20T14:06:26;11.57;;;8.60;;
12253;SDS011;6189;52.526;13.390;2022-11-20T14:09:24;10.27;;;9.03;;
12253;SDS011;6189;52.526;13.390;2022-11-20T14:12:14;11.83;;;8.90;;
12253;SDS011;6189;52.526;13.390;2022-11-20T14:15:03;9.87;;;8.87;;
12253;SDS011;6189;52.526;13.390;2022-11-20T14:17:49;10.63;;;9.20;;
12253;SDS011;6189;52.526;13.390;2022-11-20T14:20:34;12.77;;;9.40;;
12253;SDS011;6189;52.526;13.390;2022-11-20T14:23:23;13.00;;;9.03;;
12253;SDS011;6189;52.526;13.390;2022-11-20T14:26:13;11.17;;;9.33;;
12253;SDS011;6189;52.526;13.390;2022-11-20T14:28:59;11.57;;;9.97;;
12253;SDS011;6189;52.526;13.390;2022-11-20T14:31:45;10.13;;;8.70;;
12253;SDS011;6189;52.526;13.390;2022-11-20T14:34:35;12.33;;;9.77;;
12253;SDS011;6189;52.526;13.390;2022-11-20T14:37:24;10.23;;;8.83;;
12253;SDS011;6189;52.526;13.390;2022-11-20T14:40:23;11.47;;;8.90;;
12253;SDS011;6189;52.526;13.390;2022-11-20T14:43:20;14.10;;;9.87;;
12253;SDS011;6189;52.526;13.390;2022-11-20T14:46:08;11.37;;;9.53;;
12253;SDS011;6189;52.526;13.390;2022-11-20T14:48:55;11.77;;;9.50;;
12253;SDS011;6189;52.526;13.390;2022-11-20T14:51:41;11.73;;;10.13;;
12253;SDS011;6189;52.526;13.390;2022-11-20T14:54:28;12.73;;;9.73;;
12253;SDS011;6189;52.526;13.390;2022-11-20T14:57:21;9.97;;;8.97;;
12253;SDS011;6189;52.526;13.390;2022-11-20T15:00:19;11.67;;;9.43;;
12253;SDS011;6189;52.526;13.390;2022-11-20T15:03:14;13.03;;;10.57;;
12253;SDS011;6189;52.526;13.390;2022-11-20T15:06:00;14.43;;;11.07;;
12253;SDS011;6189;52.526;13.390;2022-11-20T15:08:50;14.27;;;10.73;;
12253;SDS011;6189;52.526;13.390;2022-11-20T15:11:36;13.40;;;10.60;;
12253;SDS011;6189;52.526;13.390;2022-11-20T15:14:21;11.40;;;9.67;;
12253;SDS011;6189;52.526;13.390;2022-11-20T15:17:09;13.87;;;10.70;;
12253;SDS011;6189;52.526;13.390;2022-11-20T15:19:56;13.07;;;10.17;;
12253;SDS011;6189;52.526;13.390;2022-11-20T15:22:43;12.53;;;9.97;;
12253;SDS011;6189;52.526;13.390;2022-11-20T15:25:29;13.63;;;10.60;;
12253;SDS011;6189;52.526;13.390;2022-11-20T15:28:16;22.13;;;14.70;;
12253;SDS011;6189;52.526;13.390;2022-11-20T15:31:04;34.03;;;22.03;;
12253;SDS011;6189;52.526;13.390;2022-11-20T15:33:52;24.13;;;17.20;;
12253;SDS011;6189;52.526;13.390;2022-11-20T15:36:37;24.43;;;16.33;;
12253;SDS011;6189;52.526;13.390;2022-11-20T15:39:23;15.40;;;11.90;;
12253;SDS011;6189;52.526;13.390;2022-11-20T15:42:09;14.43;;;10.57;;
12253;SDS011;6189;52.526;13.390;2022-11-20T15:44:54;17.07;;;11.73;;
12253;SDS011;6189;52.526;13.390;2022-11-20T15:47:40;14.70;;;11.73;;
12253;SDS011;6189;52.526;13.390;2022-11-20T15:50:29;13.37;;;11.40;;
12253;SDS011;6189;52.526;13.390;2022-11-20T15:53:20;12.70;;;10.67;;
12253;SDS011;6189;52.526;13.390;2022-11-20T15:56:07;14.93;;;11.30;;
12253;SDS011;6189;52.526;13.390;2022-11-20T15:58:56;13.63;;;11.13;;
12253;SDS011;6189;52.526;13.390;2022-11-20T16:01:41;15.03;;;11.83;;
12253;SDS011;6189;52.526;13.390;2022-11-20T16:04:27;14.27;;;11.27;;
12253;SDS011;6189;52.526;13.390;2022-11-20T16:07:14;13.57;;;11.03;;
12253;SDS011;6189;52.526;13.390;2022-11-20T16:09:59;16.50;;;12.07;;
12253;SDS011;6189;52.526;13.390;2022-11-20T16:12:45;22.07;;;16.13;;
12253;SDS011;6189;52.526;13.390;2022-11-20T16:15:44;18.50;;;12.77;;
12253;SDS011;6189;52.526;13.390;2022-11-20T16:18:36;14.73;;;11.93;;
12253;SDS011;6189;52.526;13.390;2022-11-20T16:21:21;16.43;;;12.43;;
12253;SDS011;6189;52.526;13.390;2022-11-20T16:24:13;13.73;;;11.30;;
12253;SDS011;6189;52.526;13.390;2022-11-20T16:26:58;13.63;;;10.60;;
12253;SDS011;6189;52.526;13.390;2022-11-20T16:29:44;11.70;;;10.13;;
12253;SDS011;6189;52.526;13.390;2022-11-20T16:32:29;14.33;;;10.40;;
12253;SDS011;6189;52.526;13.390;2022-11-20T16:35:16;15.97;;;11.53;;
12253;SDS011;6189;52.526;13.390;2022-11-20T16:38:02;12.27;;;10.20;;
12253;SDS011;6189;52.526;13.390;2022-11-20T16:40:48;14.07;;;10.90;;
12253;SDS011;6189;52.526;13.390;2022-11-20T16:43:34;13.30;;;10.33;;
12253;SDS011;6189;52.526;13.390;2022-11-20T16:46:22;16.07;;;10.83;;
12253;SDS011;6189;52.526;13.390;2022-11-20T16:49:11;12.83;;;10.90;;